createdAt,value
2022-09-15T00:00:36.629Z,100238.94
2022-09-15T00:03:04.368Z,100240.66
2022-09-15T00:05:32.274Z,100249.97
2022-09-15T00:07:59.951Z,100244.47
2022-09-15T00:10:28.745Z,100251.00
2022-09-15T00:12:57.818Z,100257.56
2022-09-15T00:15:25.399Z,100262.22
2022-09-15T00:17:53.691Z,100260.34
2022-09-15T00:20:22.152Z,100262.41
2022-09-15T00:22:49.871Z,100257.06
2022-09-15T00:25:17.518Z,100257.06
2022-09-15T00:27:45.127Z,100258.09
2022-09-15T00:30:14.265Z,100254.53
2022-09-15T00:32:41.878Z,100256.59
2022-09-15T00:35:09.924Z,100254.88
2022-09-15T00:37:37.703Z,100252.13
2022-09-15T00:40:05.657Z,100257.81
2022-09-15T00:42:33.861Z,100259.72
2022-09-15T00:45:02.539Z,100253.50
2022-09-15T00:47:39.354Z,100258.16
2022-09-15T00:50:09.723Z,100250.09
2022-09-15T00:52:40.159Z,100260.28
2022-09-15T00:55:10.196Z,100256.84
2022-09-15T00:57:40.382Z,100266.16
2022-09-15T01:00:09.621Z,100262.53
2022-09-15T01:02:39.097Z,100266.31
2022-09-15T01:05:09.139Z,100258.44
2022-09-15T01:07:38.614Z,100254.81
2022-09-15T01:10:07.593Z,100256.03
2022-09-15T01:12:35.215Z,100253.28
2022-09-15T01:15:02.803Z,100260.84
2022-09-15T01:17:38.088Z,100258.28
2022-09-15T01:20:32.950Z,100242.78
2022-09-15T01:23:19.725Z,100250.38
2022-09-15T01:26:00.231Z,100249.69
2022-09-15T01:28:35.970Z,100252.63
2022-09-15T01:31:07.936Z,100248.38
2022-09-15T01:33:41.491Z,100243.03
2022-09-15T01:36:13.527Z,100250.63
2022-09-15T01:38:50.989Z,100244.41
2022-09-15T01:41:19.767Z,100243.72
2022-09-15T01:43:51.538Z,100249.44
2022-09-15T01:46:21.763Z,100243.25
2022-09-15T01:48:52.380Z,100248.94
2022-09-15T01:51:20.641Z,100246.53
2022-09-15T01:53:48.570Z,100253.13
2022-09-15T01:56:16.267Z,100246.06
2022-09-15T01:58:43.976Z,100254.50
2022-09-15T02:01:14.744Z,100248.28
2022-09-15T02:03:46.072Z,100249.34
2022-09-15T02:06:17.982Z,100249.50
2022-09-15T02:08:49.844Z,100250.72
2022-09-15T02:11:19.300Z,100258.13
2022-09-15T02:13:49.219Z,100261.22
2022-09-15T02:16:19.963Z,100264.19
2022-09-15T02:19:11.155Z,100264.38
2022-09-15T02:21:42.813Z,100253.69
2022-09-15T02:24:15.819Z,100257.66
2022-09-15T02:26:44.159Z,100251.28
2022-09-15T02:29:14.168Z,100251.66
2022-09-15T02:31:42.938Z,100252.69
2022-09-15T02:34:14.786Z,100258.53
2022-09-15T02:36:43.136Z,100254.28
2022-09-15T02:39:13.416Z,100262.72
2022-09-15T02:41:41.553Z,100256.50
2022-09-15T02:44:09.492Z,100257.72
2022-09-15T02:46:37.591Z,100262.56
2022-09-15T02:49:05.201Z,100263.59
2022-09-15T02:51:34.208Z,100261.88
2022-09-15T02:54:01.737Z,100263.94
2022-09-15T02:56:29.322Z,100258.59
2022-09-15T02:58:56.897Z,100264.28
2022-09-15T03:01:31.725Z,100257.94
2022-09-15T03:03:59.920Z,100258.13
2022-09-15T03:06:34.236Z,100265.53
2022-09-15T03:09:04.771Z,100254.69
2022-09-15T03:11:32.468Z,100254.84
2022-09-15T03:14:00.703Z,100258.63
2022-09-15T03:16:29.042Z,100249.72
2022-09-15T03:18:57.004Z,100240.75
2022-09-15T03:21:24.855Z,100247.28
2022-09-15T03:23:52.696Z,100258.47
2022-09-15T03:26:21.678Z,100266.91
2022-09-15T03:28:49.346Z,100289.34
2022-09-15T03:31:17.299Z,100277.63
2022-09-15T03:33:44.890Z,100269.34
2022-09-15T03:36:12.475Z,100274.16
2022-09-15T03:38:40.042Z,100273.31
2022-09-15T03:41:08.913Z,100271.59
2022-09-15T03:43:38.570Z,100276.44
2022-09-15T03:46:07.070Z,100270.06
2022-09-15T03:48:35.811Z,100276.44
2022-09-15T03:51:03.372Z,100281.09
2022-09-15T03:53:32.312Z,100280.22
2022-09-15T03:56:07.814Z,100280.22
2022-09-15T03:58:35.481Z,100280.22
2022-09-15T04:01:04.767Z,100277.47
2022-09-15T04:03:32.725Z,100274.72
2022-09-15T04:06:00.346Z,100276.59
2022-09-15T04:08:28.128Z,100273.00
2022-09-15T04:10:55.779Z,100277.63
2022-09-15T04:13:27.919Z,100276.78
2022-09-15T04:16:01.052Z,100282.28
2022-09-15T04:18:30.718Z,100278.66
2022-09-15T04:21:00.196Z,100278.66
2022-09-15T04:23:28.067Z,100280.56
2022-09-15T04:25:56.854Z,100273.16
2022-09-15T04:28:24.626Z,100278.50
2022-09-15T04:30:52.243Z,100281.25
2022-09-15T04:33:20.281Z,100271.97
2022-09-15T04:35:49.300Z,100268.19
2022-09-15T04:38:16.890Z,100271.75
2022-09-15T04:40:44.479Z,100270.72
2022-09-15T04:43:14.009Z,100278.13
2022-09-15T04:45:48.568Z,100262.47
2022-09-15T04:48:16.862Z,100275.22
2022-09-15T04:50:44.395Z,100279.84
2022-09-15T04:53:13.453Z,100277.09
2022-09-15T04:55:41.105Z,100275.03
2022-09-15T04:58:09.534Z,100273.31
2022-09-15T05:00:42.211Z,100277.78
2022-09-15T05:03:10.107Z,100275.03
2022-09-15T05:05:38.126Z,100274.16
2022-09-15T05:08:06.075Z,100278.66
2022-09-15T05:10:35.077Z,100274.88
2022-09-15T05:13:02.905Z,100272.97
2022-09-15T05:15:30.465Z,100280.38
2022-09-15T05:17:59.284Z,100279.34
2022-09-15T05:20:27.020Z,100279.19
2022-09-15T05:22:55.000Z,100291.88
2022-09-15T05:25:22.984Z,100293.78
2022-09-15T05:27:51.899Z,100291.72
2022-09-15T05:33:07.177Z,100300.66
2022-09-15T05:35:34.785Z,100300.50
2022-09-15T05:38:02.640Z,100306.88
2022-09-15T05:40:30.345Z,100302.22
2022-09-15T05:42:59.399Z,100306.50
2022-09-15T05:45:26.927Z,100294.63
2022-09-15T05:47:54.535Z,100306.50
2022-09-15T05:50:22.105Z,100305.47
2022-09-15T05:52:52.020Z,100304.44
2022-09-15T05:55:19.641Z,100308.91
2022-09-15T05:57:47.219Z,100307.88
2022-09-15T06:00:16.552Z,100313.22
2022-09-15T06:02:44.246Z,100312.19
2022-09-15T06:05:11.865Z,100310.31
2022-09-15T06:07:39.542Z,100305.63
2022-09-15T06:10:07.823Z,100306.31
2022-09-15T06:12:35.454Z,100309.94
2022-09-15T06:15:03.134Z,100319.75
2022-09-15T06:17:34.077Z,100323.38
2022-09-15T06:20:01.694Z,100324.88
2022-09-15T06:22:29.287Z,100325.75
2022-09-15T06:24:56.927Z,100331.94
2022-09-15T06:27:24.863Z,100325.41
2022-09-15T06:29:52.529Z,100332.63
2022-09-15T06:32:20.044Z,100329.72
2022-09-15T06:34:49.335Z,100330.38
2022-09-15T06:37:17.310Z,100329.16
2022-09-15T06:39:44.875Z,100332.63
2022-09-15T06:42:14.022Z,100330.56
2022-09-15T06:44:42.529Z,100336.72
2022-09-15T06:47:10.454Z,100331.03
2022-09-15T06:49:38.159Z,100333.63
2022-09-15T06:52:07.177Z,100337.94
2022-09-15T06:54:34.813Z,100329.50
2022-09-15T06:57:02.407Z,100344.78
2022-09-15T06:59:30.010Z,100339.13
2022-09-15T07:02:02.646Z,100343.59
2022-09-15T07:04:32.404Z,100356.19
2022-09-15T07:06:59.924Z,100352.22
2022-09-15T07:09:28.935Z,100351.19
2022-09-15T07:11:56.524Z,100351.69
2022-09-15T07:14:24.136Z,100356.19
2022-09-15T07:16:51.969Z,100353.03
2022-09-15T07:19:19.605Z,100350.97
2022-09-15T07:21:47.159Z,100352.53
2022-09-15T07:24:14.921Z,100358.72
2022-09-15T07:26:44.135Z,100364.03
2022-09-15T07:29:12.183Z,100367.50
2022-09-15T07:31:39.981Z,100361.78
2022-09-15T07:34:08.624Z,100364.38
2022-09-15T07:36:36.201Z,100373.31
2022-09-15T07:39:04.847Z,100378.66
2022-09-15T07:41:32.799Z,100386.75
2022-09-15T07:44:02.267Z,100392.09
2022-09-15T07:46:31.375Z,100392.78
2022-09-15T07:48:59.037Z,100387.94
2022-09-15T07:51:26.869Z,100396.03
2022-09-15T07:53:54.991Z,100401.22
2022-09-15T07:56:23.868Z,100405.53
2022-09-15T07:58:51.996Z,100412.56
2022-09-15T08:01:22.412Z,100412.22
2022-09-15T08:03:51.942Z,100416.53
2022-09-15T08:06:20.476Z,100418.03
2022-09-15T08:08:49.049Z,100417.69
2022-09-15T08:11:19.010Z,100416.47
2022-09-15T08:13:47.321Z,100412.47
2022-09-15T08:16:16.123Z,100420.41
2022-09-15T08:18:45.536Z,100416.22
2022-09-15T08:21:14.835Z,100415.72
2022-09-15T08:23:42.663Z,100418.78
2022-09-15T08:26:14.134Z,100429.13
2022-09-15T08:28:42.664Z,100434.97
2022-09-15T08:31:11.432Z,100438.91
2022-09-15T08:33:44.565Z,100441.13
2022-09-15T08:36:14.650Z,100440.56
2022-09-15T08:38:43.577Z,100447.47
2022-09-15T08:41:14.398Z,100445.19
2022-09-15T08:43:45.663Z,100435.50
2022-09-15T08:46:16.977Z,100443.41
2022-09-15T08:48:49.262Z,100446.69
2022-09-15T08:51:22.456Z,100449.09
2022-09-15T08:53:52.911Z,100449.56
2022-09-15T08:56:23.646Z,100456.44
2022-09-15T08:58:54.303Z,100462.44
2022-09-15T09:01:28.213Z,100461.91
2022-09-15T09:04:07.854Z,100467.75
2022-09-15T09:06:38.056Z,100462.50
2022-09-15T09:09:16.110Z,100461.97
2022-09-15T09:11:58.576Z,100455.88
2022-09-15T09:14:32.226Z,100461.75
2022-09-15T09:17:07.861Z,100459.47
2022-09-15T09:19:43.710Z,100458.53
2022-09-15T09:22:15.061Z,100465.03
2022-09-15T09:24:44.329Z,100454.09
2022-09-15T09:27:14.303Z,100453.34
2022-09-15T09:29:49.631Z,100466.03
2022-09-15T09:32:21.641Z,100463.19
2022-09-15T09:34:55.868Z,100462.25
2022-09-15T09:37:25.592Z,100472.38
2022-09-15T09:39:53.206Z,100460.53
2022-09-15T09:42:23.918Z,100467.22
2022-09-15T09:44:52.382Z,100465.81
2022-09-15T09:47:20.572Z,100466.31
2022-09-15T09:49:48.880Z,100464.00
2022-09-15T09:52:33.357Z,100468.47
2022-09-15T09:55:03.244Z,100469.16
2022-09-15T09:57:32.478Z,100473.47
2022-09-15T10:00:00.111Z,100473.06
2022-09-15T10:02:28.122Z,100469.06
2022-09-15T10:04:56.642Z,100462.28
2022-09-15T10:07:25.896Z,100458.25
2022-09-15T10:09:55.399Z,100452.53
2022-09-15T10:12:26.388Z,100457.88
2022-09-15T10:14:55.615Z,100451.09
2022-09-15T10:17:24.144Z,100454.53
2022-09-15T10:19:54.087Z,100458.81
2022-09-15T10:22:23.978Z,100462.25
2022-09-15T10:24:51.751Z,100455.47
2022-09-15T10:27:21.073Z,100457.00
2022-09-15T10:29:50.226Z,100449.34
2022-09-15T10:32:25.389Z,100457.28
2022-09-15T10:35:00.251Z,100448.56
2022-09-15T10:37:30.721Z,100448.19
2022-09-15T10:39:59.775Z,100451.41
2022-09-15T10:42:36.061Z,100460.22
2022-09-15T10:45:12.108Z,100453.22
2022-09-15T10:47:49.121Z,100454.53
2022-09-15T10:50:18.148Z,100456.72
2022-09-15T10:52:56.717Z,100457.22
2022-09-15T10:55:51.137Z,100459.81
2022-09-15T10:58:25.188Z,100451.94
2022-09-15T11:00:59.778Z,100446.22
2022-09-15T11:03:41.068Z,100447.06
2022-09-15T11:06:14.785Z,100434.94
2022-09-15T11:08:47.110Z,100451.75
2022-09-15T11:11:18.620Z,100455.38
2022-09-15T11:13:58.655Z,100455.38
2022-09-15T11:16:31.556Z,100465.59
2022-09-15T11:19:10.142Z,100467.34
2022-09-15T11:21:39.682Z,100462.47
2022-09-15T11:24:24.921Z,100458.63
2022-09-15T11:26:53.643Z,100456.50
2022-09-15T11:29:24.113Z,100458.03
2022-09-15T11:31:55.699Z,100464.25
2022-09-15T11:34:26.169Z,100460.41
2022-09-15T11:36:57.405Z,100468.53
2022-09-15T11:39:29.014Z,100470.22
2022-09-15T11:42:01.094Z,100467.69
2022-09-15T11:44:31.554Z,100465.09
2022-09-15T11:47:08.791Z,100475.34
2022-09-15T11:49:39.693Z,100463.56
2022-09-15T11:52:12.263Z,100471.22
2022-09-15T11:54:44.172Z,100465.91
2022-09-15T11:57:16.339Z,100467.16
2022-09-15T11:59:47.946Z,100471.16
2022-09-15T12:02:21.252Z,100476.03
2022-09-15T12:05:05.008Z,100471.75
2022-09-15T12:07:34.775Z,100473.84
2022-09-15T12:10:07.006Z,100466.78
2022-09-15T12:12:36.220Z,100470.56
2022-09-15T12:15:03.938Z,100478.03
2022-09-15T12:17:36.562Z,100479.97
2022-09-15T12:20:07.198Z,100483.78
2022-09-15T12:22:40.140Z,100487.59
2022-09-15T12:25:12.870Z,100482.06
2022-09-15T12:27:40.526Z,100486.75
2022-09-15T12:30:30.046Z,100481.41
2022-09-15T12:32:59.061Z,100486.94
2022-09-15T12:35:33.461Z,100489.03
2022-09-15T12:38:01.583Z,100480.91
2022-09-15T12:40:34.412Z,100492.00
2022-09-15T12:43:03.170Z,100488.78
2022-09-15T12:45:32.241Z,100488.09
2022-09-15T12:48:03.662Z,100490.19
2022-09-15T12:50:32.845Z,100502.53
2022-09-15T12:53:01.944Z,100507.41
2022-09-15T12:55:32.005Z,100503.97
2022-09-15T12:58:01.147Z,100517.38
2022-09-15T13:00:30.289Z,100505.78
2022-09-15T13:02:58.435Z,100515.34
2022-09-15T13:05:50.472Z,100512.97
2022-09-15T13:08:43.773Z,100522.72
2022-09-15T13:11:13.546Z,100514.97
2022-09-15T13:13:44.600Z,100515.34
2022-09-15T13:16:15.771Z,100518.50
2022-09-15T13:18:44.426Z,100518.03
2022-09-15T13:21:15.047Z,100513.91
2022-09-15T13:23:48.001Z,100522.81
2022-09-15T13:26:18.368Z,100510.19
2022-09-15T13:28:50.444Z,100510.78
2022-09-15T13:31:27.282Z,100512.00
2022-09-15T13:40:04.157Z,100500.31
2022-09-15T13:42:36.395Z,100502.44
2022-09-15T13:45:19.266Z,100499.00
2022-09-15T13:47:52.150Z,100499.00
2022-09-15T13:50:23.046Z,100495.34
2022-09-15T13:53:03.998Z,100490.88
2022-09-15T13:55:35.241Z,100494.69
2022-09-15T14:00:58.609Z,100487.44
2022-09-15T14:03:28.514Z,100488.28
2022-09-15T14:05:56.475Z,100488.28
2022-09-15T14:08:25.809Z,100480.16
2022-09-15T14:10:56.152Z,100486.56
2022-09-15T14:13:26.579Z,100488.28
2022-09-15T14:15:57.599Z,100489.34
2022-09-15T14:18:25.233Z,100481.03
2022-09-15T14:20:59.736Z,100491.25
2022-09-15T14:23:27.480Z,100485.91
2022-09-15T14:25:58.973Z,100491.44
2022-09-15T14:28:31.543Z,100493.34
2022-09-15T14:30:59.745Z,100489.72
2022-09-15T14:33:35.527Z,100486.09
2022-09-15T14:36:12.953Z,100481.78
2022-09-15T14:38:41.209Z,100479.03
2022-09-15T14:41:19.081Z,100482.84
2022-09-15T14:43:46.741Z,100489.41
2022-09-15T14:46:15.324Z,100484.94
2022-09-15T14:48:43.212Z,100486.00
2022-09-15T14:51:14.932Z,100484.28
2022-09-15T14:53:44.330Z,100484.28
2022-09-15T14:56:15.977Z,100483.25
2022-09-15T14:58:47.326Z,100481.50
2022-09-15T15:01:17.609Z,100481.34
2022-09-15T15:03:49.014Z,100491.31
2022-09-15T15:06:34.325Z,100489.63
2022-09-15T15:09:04.165Z,100488.56
2022-09-15T15:11:32.988Z,100483.88
2022-09-15T15:14:03.222Z,100483.88
2022-09-15T15:16:32.089Z,100479.41
2022-09-15T15:19:00.020Z,100484.75
2022-09-15T15:21:45.356Z,100481.34
2022-09-15T15:24:20.529Z,100485.78
2022-09-15T15:26:48.978Z,100489.41
2022-09-15T15:29:40.328Z,100481.97
2022-09-15T15:32:11.648Z,100480.06
2022-09-15T15:34:39.607Z,100479.22
2022-09-15T15:37:15.713Z,100483.88
2022-09-15T15:39:46.738Z,100481.97
2022-09-15T15:42:15.990Z,100484.75
2022-09-15T15:44:58.944Z,100489.41
2022-09-15T15:47:29.784Z,100484.75
2022-09-15T15:50:15.863Z,100485.59
2022-09-15T15:52:44.112Z,100481.97
2022-09-15T15:55:14.444Z,100479.22
2022-09-15T15:57:42.150Z,100481.97
2022-09-15T16:00:20.940Z,100483.88
2022-09-15T16:02:50.785Z,100489.41
2022-09-15T16:05:18.914Z,100485.78
2022-09-15T16:07:47.723Z,100489.63
2022-09-15T16:10:16.735Z,100490.47
2022-09-15T16:12:44.446Z,100484.09
2022-09-15T16:15:13.169Z,100486.00
2022-09-15T16:17:45.940Z,100483.41
2022-09-15T16:20:16.859Z,100491.53
2022-09-15T16:22:44.697Z,100489.81
2022-09-15T16:25:14.463Z,100487.22
2022-09-15T16:27:42.218Z,100480.66
2022-09-15T16:30:12.026Z,100486.19
2022-09-15T16:32:40.459Z,100481.50
2022-09-15T16:35:18.714Z,100477.88
2022-09-15T16:37:47.737Z,100484.47
2022-09-15T16:40:15.634Z,100488.09
2022-09-15T16:42:43.356Z,100499.34
2022-09-15T16:45:17.051Z,100501.91
2022-09-15T16:47:44.731Z,100502.09
2022-09-15T16:50:13.089Z,100501.06
2022-09-15T16:52:40.725Z,100492.75
2022-09-15T16:55:17.968Z,100502.97
2022-09-15T16:57:45.569Z,100497.44
2022-09-15T17:00:13.928Z,100502.09
2022-09-15T17:02:41.872Z,100509.53
2022-09-15T17:05:14.490Z,100507.81
2022-09-15T17:07:42.191Z,100507.13
2022-09-15T17:10:09.979Z,100509.91
2022-09-15T17:12:39.334Z,100512.88
2022-09-15T17:15:24.918Z,100519.47
2022-09-15T17:17:52.554Z,100513.25
2022-09-15T17:20:20.599Z,100520.69
2022-09-15T17:22:48.858Z,100530.03
2022-09-15T17:25:25.294Z,100522.78
2022-09-15T17:27:54.553Z,100525.72
2022-09-15T17:30:22.710Z,100521.25
2022-09-15T17:32:50.692Z,100522.31
2022-09-15T17:35:19.425Z,100526.13
2022-09-15T17:37:47.300Z,100520.75
2022-09-15T17:40:15.180Z,100515.41
2022-09-15T17:42:43.365Z,100523.03
2022-09-15T17:45:16.645Z,100524.09
2022-09-15T17:47:44.421Z,100526.19
2022-09-15T17:50:11.998Z,100531.03
2022-09-15T17:52:39.696Z,100532.06
2022-09-15T17:55:12.301Z,100526.94
2022-09-15T17:57:39.910Z,100531.78
2022-09-15T18:00:08.820Z,100524.53
2022-09-15T18:02:38.567Z,100527.66
2022-09-15T18:05:07.706Z,100520.59
2022-09-15T18:07:35.294Z,100524.59
2022-09-15T18:10:02.891Z,100526.84
2022-09-15T18:12:30.468Z,100531.72
2022-09-15T18:14:58.093Z,100533.78
2022-09-15T18:17:25.735Z,100531.19
2022-09-15T18:19:54.633Z,100531.53
2022-09-15T18:22:23.684Z,100538.97
2022-09-15T18:24:51.259Z,100537.47
2022-09-15T18:27:18.801Z,100546.78
2022-09-15T18:29:46.361Z,100546.09
2022-09-15T18:32:13.937Z,100548.00
2022-09-15T18:34:41.630Z,100552.84
2022-09-15T18:37:10.549Z,100553.72
2022-09-15T18:39:38.539Z,100548.41
2022-09-15T18:42:06.252Z,100546.66
2022-09-15T18:44:33.848Z,100542.34
2022-09-15T18:47:01.435Z,100551.50
2022-09-15T18:49:29.009Z,100548.91
2022-09-15T18:51:56.609Z,100549.09
2022-09-15T18:54:25.684Z,100546.34
2022-09-15T18:56:53.266Z,100549.47
2022-09-15T18:59:20.874Z,100549.47
2022-09-15T19:01:48.583Z,100557.94
2022-09-15T19:04:16.256Z,100555.34
2022-09-15T19:06:43.809Z,100564.69
2022-09-15T19:09:11.636Z,100563.13
2022-09-15T19:11:40.627Z,100567.84
2022-09-15T19:14:08.356Z,100565.25
2022-09-15T19:16:56.632Z,100570.09
2022-09-15T19:19:24.157Z,100569.41
2022-09-15T19:21:51.929Z,100577.84
2022-09-15T19:24:19.628Z,100574.44
2022-09-15T19:26:48.559Z,100579.09
2022-09-15T19:29:16.439Z,100574.78
2022-09-15T19:31:44.111Z,100585.84
2022-09-15T19:34:11.700Z,100590.69
2022-09-15T19:36:39.312Z,100590.03
2022-09-15T19:39:07.191Z,100592.97
2022-09-15T19:41:34.791Z,100589.34
2022-09-15T19:44:04.570Z,100583.97
2022-09-15T19:46:32.204Z,100595.19
2022-09-15T19:48:59.902Z,100589.00
2022-09-15T19:51:27.527Z,100594.72
2022-09-15T19:53:55.729Z,100592.13
2022-09-15T19:56:26.091Z,100601.28
2022-09-15T19:58:55.713Z,100592.31
2022-09-15T20:01:25.530Z,100593.34
2022-09-15T20:03:53.414Z,100604.56
2022-09-15T20:06:21.439Z,100603.88
2022-09-15T20:08:52.431Z,100601.31
2022-09-15T20:11:20.495Z,100608.72
2022-09-15T20:13:48.438Z,100601.66
2022-09-15T20:16:17.686Z,100600.97
2022-09-15T20:18:47.862Z,100605.81
2022-09-15T20:21:22.162Z,100610.66
2022-09-15T20:24:01.100Z,100605.31
2022-09-15T20:26:29.686Z,100611.84
2022-09-15T20:28:57.291Z,100617.56
2022-09-15T20:31:25.862Z,100618.59
2022-09-15T20:33:55.634Z,100618.75
2022-09-15T20:36:24.260Z,100630.84
2022-09-15T20:38:52.880Z,100637.38
2022-09-15T20:41:22.692Z,100625.66
2022-09-15T20:43:50.792Z,100643.94
2022-09-15T20:46:19.482Z,100632.22
2022-09-15T20:48:47.647Z,100640.66
2022-09-15T20:51:17.484Z,100638.09
2022-09-15T20:53:46.049Z,100640.00
2022-09-15T20:56:14.115Z,100643.78
2022-09-15T20:58:42.203Z,100644.81
2022-09-15T21:01:10.652Z,100637.75
2022-09-15T21:03:39.353Z,100636.03
2022-09-15T21:06:08.218Z,100638.94
2022-09-15T21:08:37.555Z,100632.75
2022-09-15T21:11:06.243Z,100641.22
2022-09-15T21:13:36.144Z,100645.19
2022-09-15T21:16:06.280Z,100640.88
2022-09-15T21:18:35.036Z,100643.81
2022-09-15T21:21:03.596Z,100641.22
2022-09-15T21:23:33.286Z,100639.50
2022-09-15T21:26:02.970Z,100650.88
2022-09-15T21:28:30.969Z,100651.06
2022-09-15T21:31:02.236Z,100647.63
2022-09-15T21:33:30.025Z,100649.69
2022-09-15T21:36:05.036Z,100652.59
2022-09-15T21:38:32.760Z,100656.59
2022-09-15T21:41:00.390Z,100660.56
2022-09-15T21:43:31.965Z,100654.16
2022-09-15T21:45:59.867Z,100656.22
2022-09-15T21:48:28.473Z,100649.84
2022-09-15T21:50:56.160Z,100650.03
2022-09-15T21:53:23.816Z,100658.50
2022-09-15T21:55:52.491Z,100657.63
2022-09-15T21:58:20.778Z,100661.41
2022-09-15T22:00:50.355Z,100655.03
2022-09-15T22:03:18.385Z,100662.44
2022-09-15T22:05:46.880Z,100649.69
2022-09-15T22:08:16.070Z,100657.97
2022-09-15T22:10:44.324Z,100659.00
2022-09-15T22:13:12.559Z,100659.00
2022-09-15T22:15:40.164Z,100668.31
2022-09-15T22:18:09.259Z,100669.31
2022-09-15T22:20:37.106Z,100662.94
2022-09-15T22:23:04.735Z,100665.03
2022-09-15T22:25:33.789Z,100669.69
2022-09-15T22:28:01.415Z,100664.19
2022-09-15T22:30:28.986Z,100662.44
2022-09-15T22:32:56.576Z,100666.22
2022-09-15T22:35:25.771Z,100663.66
2022-09-15T22:37:53.354Z,100664.66
2022-09-15T22:40:20.994Z,100672.94
2022-09-15T22:42:48.812Z,100669.53
2022-09-15T22:45:17.603Z,100671.59
2022-09-15T22:47:45.232Z,100666.06
2022-09-15T22:50:12.819Z,100673.47
2022-09-15T22:52:41.748Z,100669.00
2022-09-15T22:55:09.563Z,100663.63
2022-09-15T22:57:39.581Z,100658.28
2022-09-15T23:00:07.867Z,100661.03
2022-09-15T23:02:35.647Z,100655.72
2022-09-15T23:05:03.225Z,100656.75
2022-09-15T23:07:31.043Z,100653.13
2022-09-15T23:10:00.109Z,100653.31
2022-09-15T23:12:30.619Z,100656.22
2022-09-15T23:14:58.390Z,100655.19
2022-09-15T23:17:27.461Z,100656.22
2022-09-15T23:19:55.232Z,100654.50
2022-09-15T23:22:23.064Z,100649.84
2022-09-15T23:24:50.702Z,100652.59
2022-09-15T23:27:19.953Z,100652.59
2022-09-15T23:29:47.518Z,100654.66
2022-09-15T23:32:15.097Z,100653.78
2022-09-15T23:34:42.772Z,100648.28
2022-09-15T23:37:10.339Z,100650.34
2022-09-15T23:39:37.920Z,100652.06
2022-09-15T23:42:05.552Z,100657.75
2022-09-15T23:44:34.452Z,100650.50
2022-09-15T23:47:02.173Z,100657.03
2022-09-15T23:49:29.777Z,100658.06
2022-09-15T23:51:57.352Z,100652.72
2022-09-15T23:54:24.971Z,100654.63
2022-09-15T23:56:52.601Z,100639.28
2022-09-15T23:59:20.364Z,100630.00
